sensor_id;sensor_type;location;lat;lon;timestamp;pressure;altitude;pressure_sealevel;temperature;humidity
34177;BME280;20450;49.074;9.158;2023-05-14T00:01:44;99808.84;;;13.73;80.09
34177;BME280;20450;49.074;9.158;2023-05-14T00:04:11;99811.56;;;13.73;80.72
34177;BME280;20450;49.074;9.158;2023-05-14T00:10:25;99801.28;;;13.75;80.61
34177;BME280;20450;49.074;9.158;2023-05-14T00:12:52;99799.88;;;13.72;81.13
34177;BME280;20450;49.074;9.158;2023-05-14T00:15:21;99802.44;;;13.67;81.15
34177;BME280;20450;49.074;9.158;2023-05-14T00:21:31;99789.22;;;13.59;81.81
34177;BME280;20450;49.074;9.158;2023-05-14T00:23:58;99787.91;;;13.62;82.35
34177;BME280;20450;49.074;9.158;2023-05-14T00:26:25;99784.13;;;13.63;82.28
34177;BME280;20450;49.074;9.158;2023-05-14T00:32:35;99782.47;;;13.62;81.62
34177;BME280;20450;49.074;9.158;2023-05-14T00:35:03;99777.53;;;13.59;81.34
34177;BME280;20450;49.074;9.158;2023-05-14T00:41:15;99774.03;;;13.40;80.44
34177;BME280;20450;49.074;9.158;2023-05-14T00:43:42;99772.13;;;13.41;80.55
34177;BME280;20450;49.074;9.158;2023-05-14T00:46:10;99770.28;;;13.23;80.78
34177;BME280;20450;49.074;9.158;2023-05-14T00:53:10;99781.53;;;12.91;80.91
34177;BME280;20450;49.074;9.158;2023-05-14T00:55:40;99776.56;;;12.70;81.27
34177;BME280;20450;49.074;9.158;2023-05-14T00:58:09;99784.69;;;12.70;81.54
34177;BME280;20450;49.074;9.158;2023-05-14T01:00:38;99780.31;;;12.69;81.94
34177;BME280;20450;49.074;9.158;2023-05-14T01:03:07;99781.47;;;12.79;82.24
34177;BME280;20450;49.074;9.158;2023-05-14T01:05:40;99778.06;;;12.84;81.66
34177;BME280;20450;49.074;9.158;2023-05-14T01:08:30;99777.97;;;12.90;81.62
34177;BME280;20450;49.074;9.158;2023-05-14T01:11:05;99770.84;;;12.96;80.97
34177;BME280;20450;49.074;9.158;2023-05-14T01:13:43;99772.06;;;13.00;80.72
34177;BME280;20450;49.074;9.158;2023-05-14T01:16:18;99769.34;;;13.00;80.49
34177;BME280;20450;49.074;9.158;2023-05-14T01:18:47;99774.13;;;12.98;80.27
34177;BME280;20450;49.074;9.158;2023-05-14T01:21:33;99764.19;;;12.92;79.84
34177;BME280;20450;49.074;9.158;2023-05-14T01:24:03;99768.19;;;12.89;79.73
34177;BME280;20450;49.074;9.158;2023-05-14T01:26:31;99762.78;;;12.89;79.80
34177;BME280;20450;49.074;9.158;2023-05-14T01:29:05;99759.59;;;12.92;79.82
34177;BME280;20450;49.074;9.158;2023-05-14T01:31:38;99765.94;;;12.86;79.47
34177;BME280;20450;49.074;9.158;2023-05-14T01:34:11;99758.47;;;12.82;79.36
34177;BME280;20450;49.074;9.158;2023-05-14T01:36:41;99758.31;;;12.77;79.04
34177;BME280;20450;49.074;9.158;2023-05-14T01:39:11;99766.31;;;12.72;79.71
34177;BME280;20450;49.074;9.158;2023-05-14T01:41:41;99762.84;;;12.65;79.88
34177;BME280;20450;49.074;9.158;2023-05-14T01:44:08;99769.75;;;12.61;80.03
34177;BME280;20450;49.074;9.158;2023-05-14T01:46:37;99764.78;;;12.58;79.95
34177;BME280;20450;49.074;9.158;2023-05-14T01:49:04;99774.13;;;12.44;80.01
34177;BME280;20450;49.074;9.158;2023-05-14T01:51:31;99771.56;;;12.06;81.39
34177;BME280;20450;49.074;9.158;2023-05-14T01:54:00;99775.25;;;11.87;82.59
34177;BME280;20450;49.074;9.158;2023-05-14T01:56:27;99781.53;;;11.81;82.68
34177;BME280;20450;49.074;9.158;2023-05-14T01:58:54;99780.88;;;11.85;82.81
34177;BME280;20450;49.074;9.158;2023-05-14T02:01:22;99773.78;;;11.84;82.46
34177;BME280;20450;49.074;9.158;2023-05-14T02:03:52;99774.44;;;11.80;83.11
34177;BME280;20450;49.074;9.158;2023-05-14T02:06:21;99767.38;;;11.79;82.81
34177;BME280;20450;49.074;9.158;2023-05-14T02:08:49;99769.00;;;11.86;82.75
34177;BME280;20450;49.074;9.158;2023-05-14T02:11:17;99769.78;;;11.93;82.97
34177;BME280;20450;49.074;9.158;2023-05-14T02:13:44;99765.75;;;12.03;82.14
34177;BME280;20450;49.074;9.158;2023-05-14T02:16:11;99759.88;;;12.06;82.02
34177;BME280;20450;49.074;9.158;2023-05-14T02:18:38;99759.22;;;12.10;81.23
34177;BME280;20450;49.074;9.158;2023-05-14T02:21:32;99756.72;;;12.09;81.09
34177;BME280;20450;49.074;9.158;2023-05-14T02:24:00;99756.38;;;12.05;80.92
34177;BME280;20450;49.074;9.158;2023-05-14T02:26:28;99757.19;;;12.06;81.02
34177;BME280;20450;49.074;9.158;2023-05-14T02:28:55;99760.94;;;12.05;80.93
34177;BME280;20450;49.074;9.158;2023-05-14T02:31:23;99758.69;;;12.02;80.92
34177;BME280;20450;49.074;9.158;2023-05-14T02:33:50;99756.81;;;12.02;80.92
34177;BME280;20450;49.074;9.158;2023-05-14T02:36:18;99764.94;;;12.02;81.03
34177;BME280;20450;49.074;9.158;2023-05-14T02:39:11;99767.63;;;12.02;80.64
34177;BME280;20450;49.074;9.158;2023-05-14T02:41:40;99770.13;;;12.04;80.51
34177;BME280;20450;49.074;9.158;2023-05-14T02:44:08;99778.69;;;12.01;80.29
34177;BME280;20450;49.074;9.158;2023-05-14T02:46:35;99779.94;;;11.98;80.71
34177;BME280;20450;49.074;9.158;2023-05-14T02:49:02;99777.44;;;11.97;80.74
34177;BME280;20450;49.074;9.158;2023-05-14T02:51:29;99773.31;;;11.94;80.16
34177;BME280;20450;49.074;9.158;2023-05-14T02:53:56;99766.47;;;11.92;80.10
34177;BME280;20450;49.074;9.158;2023-05-14T02:56:23;99769.41;;;11.90;80.00
34177;BME280;20450;49.074;9.158;2023-05-14T02:59:21;99776.06;;;11.87;80.75
34177;BME280;20450;49.074;9.158;2023-05-14T03:01:50;99765.09;;;11.82;80.82
34177;BME280;20450;49.074;9.158;2023-05-14T03:04:18;99759.53;;;11.71;81.06
34177;BME280;20450;49.074;9.158;2023-05-14T03:10:31;99755.13;;;11.76;81.39
34177;BME280;20450;49.074;9.158;2023-05-14T03:13:03;99760.78;;;11.75;81.21
34177;BME280;20450;49.074;9.158;2023-05-14T03:15:37;99762.84;;;11.73;80.52
34177;BME280;20450;49.074;9.158;2023-05-14T03:18:05;99764.13;;;11.70;81.00
34177;BME280;20450;49.074;9.158;2023-05-14T03:20:52;99762.09;;;11.59;80.06
34177;BME280;20450;49.074;9.158;2023-05-14T03:23:20;99754.63;;;11.55;80.43
34177;BME280;20450;49.074;9.158;2023-05-14T03:25:48;99759.22;;;11.54;80.04
34177;BME280;20450;49.074;9.158;2023-05-14T03:28:15;99769.63;;;11.51;80.90
34177;BME280;20450;49.074;9.158;2023-05-14T03:30:43;99764.22;;;11.51;80.51
34177;BME280;20450;49.074;9.158;2023-05-14T03:33:10;99765.88;;;11.52;80.95
34177;BME280;20450;49.074;9.158;2023-05-14T03:35:38;99766.72;;;11.52;81.59
34177;BME280;20450;49.074;9.158;2023-05-14T03:38:05;99775.66;;;11.53;81.16
34177;BME280;20450;49.074;9.158;2023-05-14T03:43:53;99768.59;;;11.52;79.92
34177;BME280;20450;49.074;9.158;2023-05-14T03:46:21;99761.97;;;11.48;80.33
34177;BME280;20450;49.074;9.158;2023-05-14T03:48:48;99765.66;;;11.53;81.10
34177;BME280;20450;49.074;9.158;2023-05-14T03:51:41;99761.50;;;11.57;81.17
34177;BME280;20450;49.074;9.158;2023-05-14T03:54:09;99757.50;;;11.60;81.64
34177;BME280;20450;49.074;9.158;2023-05-14T03:56:36;99772.91;;;11.66;81.09
34177;BME280;20450;49.074;9.158;2023-05-14T03:59:04;99768.50;;;11.71;80.72
34177;BME280;20450;49.074;9.158;2023-05-14T04:01:32;99763.25;;;11.76;80.50
34177;BME280;20450;49.074;9.158;2023-05-14T04:04:07;99771.41;;;11.70;80.05
34177;BME280;20450;49.074;9.158;2023-05-14T04:06:35;99760.38;;;11.71;80.58
34177;BME280;20450;49.074;9.158;2023-05-14T04:09:02;99757.84;;;11.76;80.50
34177;BME280;20450;49.074;9.158;2023-05-14T04:11:29;99752.88;;;11.73;80.39
34177;BME280;20450;49.074;9.158;2023-05-14T04:13:58;99761.22;;;11.72;80.49
34177;BME280;20450;49.074;9.158;2023-05-14T04:16:25;99762.66;;;11.68;80.42
34177;BME280;20450;49.074;9.158;2023-05-14T04:19:13;99765.00;;;11.64;80.63
34177;BME280;20450;49.074;9.158;2023-05-14T04:21:41;99766.22;;;11.68;80.91
34177;BME280;20450;49.074;9.158;2023-05-14T04:24:08;99761.22;;;11.72;80.41
34177;BME280;20450;49.074;9.158;2023-05-14T04:30:35;99771.88;;;11.92;80.39
34177;BME280;20450;49.074;9.158;2023-05-14T04:33:02;99764.75;;;11.97;80.41
34177;BME280;20450;49.074;9.158;2023-05-14T04:35:31;99760.09;;;12.04;80.36
34177;BME280;20450;49.074;9.158;2023-05-14T04:37:58;99768.00;;;12.06;79.31
34177;BME280;20450;49.074;9.158;2023-05-14T04:40:25;99766.81;;;12.02;79.09
34177;BME280;20450;49.074;9.158;2023-05-14T04:42:53;99767.84;;;12.01;79.52
34177;BME280;20450;49.074;9.158;2023-05-14T04:45:20;99768.00;;;12.06;79.76
34177;BME280;20450;49.074;9.158;2023-05-14T04:47:47;99763.22;;;12.08;79.31
34177;BME280;20450;49.074;9.158;2023-05-14T04:50:14;99764.41;;;12.12;79.12
34177;BME280;20450;49.074;9.158;2023-05-14T04:52:43;99766.31;;;12.11;79.07
34177;BME280;20450;49.074;9.158;2023-05-14T04:55:10;99772.09;;;12.15;79.40
34177;BME280;20450;49.074;9.158;2023-05-14T04:57:37;99767.88;;;12.19;78.96
34177;BME280;20450;49.074;9.158;2023-05-14T05:00:05;99769.69;;;12.25;79.14
34177;BME280;20450;49.074;9.158;2023-05-14T05:02:33;99773.44;;;12.30;78.62
34177;BME280;20450;49.074;9.158;2023-05-14T05:05:00;99772.97;;;12.33;78.08
34177;BME280;20450;49.074;9.158;2023-05-14T05:07:27;99763.16;;;12.32;77.87
34177;BME280;20450;49.074;9.158;2023-05-14T05:09:55;99769.88;;;12.30;78.03
34177;BME280;20450;49.074;9.158;2023-05-14T05:12:23;99764.41;;;12.36;78.01
34177;BME280;20450;49.074;9.158;2023-05-14T05:14:49;99752.91;;;12.41;77.96
34177;BME280;20450;49.074;9.158;2023-05-14T05:17:17;99751.16;;;12.46;78.21
34177;BME280;20450;49.074;9.158;2023-05-14T05:19:44;99758.84;;;12.49;77.47
34177;BME280;20450;49.074;9.158;2023-05-14T05:22:11;99759.81;;;12.37;77.37
34177;BME280;20450;49.074;9.158;2023-05-14T05:24:40;99753.19;;;12.33;78.14
34177;BME280;20450;49.074;9.158;2023-05-14T05:27:09;99758.19;;;12.29;78.24
34177;BME280;20450;49.074;9.158;2023-05-14T05:29:36;99761.09;;;12.34;78.52
34177;BME280;20450;49.074;9.158;2023-05-14T05:32:04;99766.00;;;12.44;78.58
34177;BME280;20450;49.074;9.158;2023-05-14T05:34:32;99756.38;;;12.48;78.06
34177;BME280;20450;49.074;9.158;2023-05-14T05:36:59;99763.75;;;12.59;78.34
34177;BME280;20450;49.074;9.158;2023-05-14T05:39:26;99769.72;;;12.67;78.06
34177;BME280;20450;49.074;9.158;2023-05-14T05:41:53;99768.03;;;12.66;77.77
34177;BME280;20450;49.074;9.158;2023-05-14T05:44:22;99764.19;;;12.74;77.87
34177;BME280;20450;49.074;9.158;2023-05-14T05:46:49;99762.63;;;12.84;77.02
34177;BME280;20450;49.074;9.158;2023-05-14T05:49:16;99764.19;;;12.92;77.00
34177;BME280;20450;49.074;9.158;2023-05-14T05:51:43;99762.09;;;12.94;76.47
34177;BME280;20450;49.074;9.158;2023-05-14T05:54:10;99750.78;;;12.97;76.47
34177;BME280;20450;49.074;9.158;2023-05-14T05:56:37;99759.13;;;13.02;76.52
34177;BME280;20450;49.074;9.158;2023-05-14T05:59:04;99757.94;;;13.09;76.56
34177;BME280;20450;49.074;9.158;2023-05-14T06:01:32;99761.66;;;13.15;75.85
34177;BME280;20450;49.074;9.158;2023-05-14T06:03:59;99767.59;;;13.23;75.93
34177;BME280;20450;49.074;9.158;2023-05-14T06:06:27;99762.19;;;13.35;76.05
34177;BME280;20450;49.074;9.158;2023-05-14T06:08:54;99759.31;;;13.48;75.04
34177;BME280;20450;49.074;9.158;2023-05-14T06:11:21;99765.38;;;13.61;74.60
34177;BME280;20450;49.074;9.158;2023-05-14T06:13:48;99768.13;;;13.73;74.03
34177;BME280;20450;49.074;9.158;2023-05-14T06:16:15;99762.00;;;13.77;73.38
34177;BME280;20450;49.074;9.158;2023-05-14T06:18:43;99766.16;;;13.92;73.22
34177;BME280;20450;49.074;9.158;2023-05-14T06:21:10;99758.28;;;14.13;72.18
34177;BME280;20450;49.074;9.158;2023-05-14T06:23:37;99766.97;;;14.45;71.58
34177;BME280;20450;49.074;9.158;2023-05-14T06:26:04;99755.09;;;14.74;70.96
34177;BME280;20450;49.074;9.158;2023-05-14T06:28:31;99759.69;;;14.96;69.54
34177;BME280;20450;49.074;9.158;2023-05-14T06:30:58;99763.09;;;15.31;68.67
34177;BME280;20450;49.074;9.158;2023-05-14T06:33:25;99760.72;;;15.35;68.19
34177;BME280;20450;49.074;9.158;2023-05-14T06:35:53;99755.44;;;15.56;67.11
34177;BME280;20450;49.074;9.158;2023-05-14T06:38:20;99756.97;;;15.81;65.83
34177;BME280;20450;49.074;9.158;2023-05-14T06:40:47;99755.34;;;15.96;65.36
34177;BME280;20450;49.074;9.158;2023-05-14T06:43:14;99755.41;;;16.34;64.67
34177;BME280;20450;49.074;9.158;2023-05-14T06:45:42;99744.44;;;17.05;61.92
34177;BME280;20450;49.074;9.158;2023-05-14T06:48:09;99747.50;;;18.42;58.50
34177;BME280;20450;49.074;9.158;2023-05-14T06:50:36;99741.69;;;19.26;56.18
34177;BME280;20450;49.074;9.158;2023-05-14T06:53:05;99738.50;;;19.75;54.07
34177;BME280;20450;49.074;9.158;2023-05-14T06:55:31;99749.25;;;20.51;51.13
34177;BME280;20450;49.074;9.158;2023-05-14T06:57:58;99742.28;;;20.89;50.64
34177;BME280;20450;49.074;9.158;2023-05-14T07:00:26;99740.19;;;20.46;50.45
34177;BME280;20450;49.074;9.158;2023-05-14T07:02:53;99746.44;;;20.71;50.24
34177;BME280;20450;49.074;9.158;2023-05-14T07:05:21;99743.47;;;20.08;50.96
34177;BME280;20450;49.074;9.158;2023-05-14T07:07:47;99743.75;;;19.96;51.91
34177;BME280;20450;49.074;9.158;2023-05-14T07:10:16;99729.75;;;19.98;51.80
34177;BME280;20450;49.074;9.158;2023-05-14T07:12:43;99739.34;;;20.60;50.64
34177;BME280;20450;49.074;9.158;2023-05-14T07:15:10;99732.25;;;21.28;48.72
34177;BME280;20450;49.074;9.158;2023-05-14T07:17:37;99733.03;;;21.38;48.85
34177;BME280;20450;49.074;9.158;2023-05-14T07:20:05;99730.47;;;20.88;49.36
34177;BME280;20450;49.074;9.158;2023-05-14T07:22:35;99730.91;;;21.79;47.48
34177;BME280;20450;49.074;9.158;2023-05-14T07:25:02;99728.19;;;22.93;45.31
34177;BME280;20450;49.074;9.158;2023-05-14T07:27:31;99717.22;;;23.91;43.63
34177;BME280;20450;49.074;9.158;2023-05-14T07:29:58;99710.75;;;24.33;42.31
34177;BME280;20450;49.074;9.158;2023-05-14T07:32:25;99708.94;;;24.87;40.63
34177;BME280;20450;49.074;9.158;2023-05-14T07:34:52;99712.19;;;25.03;39.74
34177;BME280;20450;49.074;9.158;2023-05-14T07:37:19;99704.63;;;24.95;40.28
34177;BME280;20450;49.074;9.158;2023-05-14T07:39:49;99719.38;;;24.90;39.57
34177;BME280;20450;49.074;9.158;2023-05-14T07:42:16;99709.41;;;24.30;41.27
34177;BME280;20450;49.074;9.158;2023-05-14T07:44:59;99713.03;;;24.44;41.63
34177;BME280;20450;49.074;9.158;2023-05-14T07:47:26;99715.81;;;23.94;41.59
34177;BME280;20450;49.074;9.158;2023-05-14T07:49:53;99706.28;;;23.86;42.52
34177;BME280;20450;49.074;9.158;2023-05-14T07:52:21;99702.66;;;24.23;42.07
34177;BME280;20450;49.074;9.158;2023-05-14T07:54:49;99705.22;;;24.01;42.31
34177;BME280;20450;49.074;9.158;2023-05-14T07:57:17;99712.47;;;23.78;42.70
34177;BME280;20450;49.074;9.158;2023-05-14T07:59:44;99707.28;;;23.35;42.91
34177;BME280;20450;49.074;9.158;2023-05-14T08:02:14;99707.78;;;23.18;44.06
34177;BME280;20450;49.074;9.158;2023-05-14T08:04:41;99703.88;;;23.43;44.05
34177;BME280;20450;49.074;9.158;2023-05-14T08:07:08;99703.50;;;23.31;43.92
34177;BME280;20450;49.074;9.158;2023-05-14T08:09:35;99706.41;;;22.97;44.99
34177;BME280;20450;49.074;9.158;2023-05-14T08:12:03;99716.13;;;22.66;45.59
34177;BME280;20450;49.074;9.158;2023-05-14T08:14:30;99707.28;;;22.69;45.94
34177;BME280;20450;49.074;9.158;2023-05-14T08:16:57;99700.69;;;22.65;46.05
34177;BME280;20450;49.074;9.158;2023-05-14T08:19:26;99709.84;;;22.60;45.83
34177;BME280;20450;49.074;9.158;2023-05-14T08:21:53;99696.25;;;22.40;45.90
34177;BME280;20450;49.074;9.158;2023-05-14T08:24:20;99702.19;;;22.24;46.52
34177;BME280;20450;49.074;9.158;2023-05-14T08:26:47;99710.41;;;22.57;46.85
34177;BME280;20450;49.074;9.158;2023-05-14T08:29:15;99696.97;;;22.22;45.82
34177;BME280;20450;49.074;9.158;2023-05-14T08:31:43;99696.69;;;22.24;47.87
34177;BME280;20450;49.074;9.158;2023-05-14T08:34:10;99691.50;;;22.74;46.69
34177;BME280;20450;49.074;9.158;2023-05-14T08:36:38;99678.84;;;22.97;46.24
34177;BME280;20450;49.074;9.158;2023-05-14T08:39:06;99680.47;;;22.98;45.36
34177;BME280;20450;49.074;9.158;2023-05-14T08:41:36;99687.63;;;23.41;44.28
34177;BME280;20450;49.074;9.158;2023-05-14T08:44:06;99680.81;;;23.15;43.25
34177;BME280;20450;49.074;9.158;2023-05-14T08:46:38;99686.28;;;22.73;44.62
34177;BME280;20450;49.074;9.158;2023-05-14T08:49:14;99678.78;;;22.26;45.82
34177;BME280;20450;49.074;9.158;2023-05-14T08:51:52;99681.00;;;21.96;45.90
34177;BME280;20450;49.074;9.158;2023-05-14T08:54:20;99675.50;;;21.52;48.44
34177;BME280;20450;49.074;9.158;2023-05-14T08:56:50;99673.44;;;21.78;48.23
34177;BME280;20450;49.074;9.158;2023-05-14T09:03:31;99666.13;;;21.58;49.72
34177;BME280;20450;49.074;9.158;2023-05-14T09:06:02;99672.66;;;21.67;49.56
34177;BME280;20450;49.074;9.158;2023-05-14T09:08:39;99667.72;;;21.64;49.33
34177;BME280;20450;49.074;9.158;2023-05-14T09:11:06;99669.84;;;21.77;49.51
34177;BME280;20450;49.074;9.158;2023-05-14T09:18:24;99671.06;;;21.56;49.97
34177;BME280;20450;49.074;9.158;2023-05-14T09:20:54;99663.25;;;21.40;50.11
34177;BME280;20450;49.074;9.158;2023-05-14T09:23:53;99663.66;;;21.13;51.15
34177;BME280;20450;49.074;9.158;2023-05-14T09:26:24;99656.06;;;20.95;51.65
34177;BME280;20450;49.074;9.158;2023-05-14T09:28:54;99664.84;;;20.97;51.69
34177;BME280;20450;49.074;9.158;2023-05-14T09:31:23;99662.06;;;21.02;51.95
34177;BME280;20450;49.074;9.158;2023-05-14T09:33:51;99661.25;;;21.01;52.30
34177;BME280;20450;49.074;9.158;2023-05-14T09:36:18;99663.78;;;20.83;51.68
34177;BME280;20450;49.074;9.158;2023-05-14T09:38:49;99658.84;;;20.80;52.04
34177;BME280;20450;49.074;9.158;2023-05-14T09:41:18;99657.25;;;20.69;52.28
34177;BME280;20450;49.074;9.158;2023-05-14T09:43:49;99657.00;;;20.55;51.63
34177;BME280;20450;49.074;9.158;2023-05-14T09:46:16;99651.28;;;20.47;52.61
34177;BME280;20450;49.074;9.158;2023-05-14T09:48:44;99646.09;;;20.35;52.82
34177;BME280;20450;49.074;9.158;2023-05-14T09:51:17;99639.50;;;20.31;52.40
34177;BME280;20450;49.074;9.158;2023-05-14T09:53:51;99640.06;;;20.33;52.98
34177;BME280;20450;49.074;9.158;2023-05-14T09:56:20;99641.44;;;20.31;53.61
34177;BME280;20450;49.074;9.158;2023-05-14T09:59:01;99639.78;;;20.30;53.30
34177;BME280;20450;49.074;9.158;2023-05-14T10:01:30;99635.41;;;20.24;53.03
34177;BME280;20450;49.074;9.158;2023-05-14T10:03:58;99639.78;;;20.35;53.49
34177;BME280;20450;49.074;9.158;2023-05-14T10:06:31;99637.06;;;19.90;52.78
34177;BME280;20450;49.074;9.158;2023-05-14T10:09:03;99631.63;;;19.85;52.21
34177;BME280;20450;49.074;9.158;2023-05-14T10:11:37;99633.78;;;19.83;52.97
34177;BME280;20450;49.074;9.158;2023-05-14T10:14:13;99639.53;;;19.96;52.89
34177;BME280;20450;49.074;9.158;2023-05-14T10:16:50;99629.66;;;20.15;53.44
34177;BME280;20450;49.074;9.158;2023-05-14T10:19:23;99640.38;;;20.22;53.02
34177;BME280;20450;49.074;9.158;2023-05-14T10:21:56;99634.28;;;20.35;53.21
34177;BME280;20450;49.074;9.158;2023-05-14T10:27:28;99633.50;;;19.99;53.75
34177;BME280;20450;49.074;9.158;2023-05-14T10:30:22;99630.19;;;20.07;53.15
34177;BME280;20450;49.074;9.158;2023-05-14T10:33:05;99639.81;;;20.05;53.70
34177;BME280;20450;49.074;9.158;2023-05-14T10:35:54;99638.16;;;20.04;52.87
34177;BME280;20450;49.074;9.158;2023-05-14T10:38:26;99637.34;;;19.98;52.61
34177;BME280;20450;49.074;9.158;2023-05-14T10:41:02;99634.06;;;20.01;52.38
34177;BME280;20450;49.074;9.158;2023-05-14T10:43:37;99631.84;;;20.03;52.95
34177;BME280;20450;49.074;9.158;2023-05-14T10:46:07;99631.03;;;19.37;53.78
34177;BME280;20450;49.074;9.158;2023-05-14T10:48:36;99629.47;;;18.75;55.62
34177;BME280;20450;49.074;9.158;2023-05-14T10:51:07;99626.97;;;18.58;57.66
34177;BME280;20450;49.074;9.158;2023-05-14T10:57:44;99614.91;;;18.08;59.67
34177;BME280;20450;49.074;9.158;2023-05-14T11:00:14;99606.69;;;18.54;57.95
34177;BME280;20450;49.074;9.158;2023-05-14T11:02:42;99604.81;;;18.65;57.53
34177;BME280;20450;49.074;9.158;2023-05-14T11:05:14;99602.09;;;18.70;56.13
34177;BME280;20450;49.074;9.158;2023-05-14T11:07:44;99611.84;;;19.63;54.99
34177;BME280;20450;49.074;9.158;2023-05-14T11:10:16;99603.34;;;20.04;52.54
34177;BME280;20450;49.074;9.158;2023-05-14T11:12:46;99592.97;;;20.75;49.49
34177;BME280;20450;49.074;9.158;2023-05-14T11:15:16;99591.28;;;20.79;49.97
34177;BME280;20450;49.074;9.158;2023-05-14T11:17:46;99595.16;;;19.74;53.42
34177;BME280;20450;49.074;9.158;2023-05-14T11:20:17;99595.16;;;19.59;51.84
34177;BME280;20450;49.074;9.158;2023-05-14T11:22:46;99584.69;;;20.16;52.52
34177;BME280;20450;49.074;9.158;2023-05-14T11:25:14;99587.69;;;20.10;51.97
34177;BME280;20450;49.074;9.158;2023-05-14T11:27:43;99588.84;;;19.64;53.35
34177;BME280;20450;49.074;9.158;2023-05-14T11:30:38;99589.75;;;18.67;54.23
34177;BME280;20450;49.074;9.158;2023-05-14T11:33:06;99587.03;;;18.16;56.23
34177;BME280;20450;49.074;9.158;2023-05-14T11:35:34;99585.66;;;18.65;54.95
34177;BME280;20450;49.074;9.158;2023-05-14T11:38:04;99577.63;;;19.40;54.44
34177;BME280;20450;49.074;9.158;2023-05-14T11:40:34;99579.44;;;20.30;51.20
34177;BME280;20450;49.074;9.158;2023-05-14T11:43:02;99577.06;;;20.72;51.51
34177;BME280;20450;49.074;9.158;2023-05-14T11:45:30;99573.97;;;20.15;51.22
34177;BME280;20450;49.074;9.158;2023-05-14T11:47:59;99574.47;;;20.37;51.53
34177;BME280;20450;49.074;9.158;2023-05-14T11:54:24;99576.63;;;20.45;50.30
34177;BME280;20450;49.074;9.158;2023-05-14T11:56:53;99562.66;;;20.41;51.04
34177;BME280;20450;49.074;9.158;2023-05-14T11:59:23;99572.81;;;20.36;50.27
34177;BME280;20450;49.074;9.158;2023-05-14T12:01:50;99570.97;;;20.16;49.32
34177;BME280;20450;49.074;9.158;2023-05-14T12:04:19;99571.50;;;20.18;50.21
34177;BME280;20450;49.074;9.158;2023-05-14T12:06:48;99564.91;;;20.19;51.06
34177;BME280;20450;49.074;9.158;2023-05-14T12:09:16;99566.88;;;19.99;51.58
34177;BME280;20450;49.074;9.158;2023-05-14T12:11:45;99567.22;;;19.62;52.13
34177;BME280;20450;49.074;9.158;2023-05-14T12:14:14;99568.03;;;19.48;52.14
34177;BME280;20450;49.074;9.158;2023-05-14T12:16:46;99564.16;;;19.84;50.58
34177;BME280;20450;49.074;9.158;2023-05-14T12:19:16;99563.00;;;20.10;50.34
34177;BME280;20450;49.074;9.158;2023-05-14T12:21:48;99560.00;;;20.16;50.00
34177;BME280;20450;49.074;9.158;2023-05-14T12:24:17;99553.13;;;20.09;49.08
34177;BME280;20450;49.074;9.158;2023-05-14T12:26:46;99559.81;;;19.58;49.72
34177;BME280;20450;49.074;9.158;2023-05-14T12:29:14;99545.47;;;20.16;50.13
34177;BME280;20450;49.074;9.158;2023-05-14T12:31:46;99549.22;;;20.40;48.78
34177;BME280;20450;49.074;9.158;2023-05-14T12:34:15;99549.41;;;19.44;48.03
34177;BME280;20450;49.074;9.158;2023-05-14T12:36:44;99544.28;;;18.51;52.11
34177;BME280;20450;49.074;9.158;2023-05-14T12:39:12;99547.56;;;18.48;52.01
34177;BME280;20450;49.074;9.158;2023-05-14T12:41:40;99549.16;;;18.39;54.01
34177;BME280;20450;49.074;9.158;2023-05-14T12:44:07;99546.81;;;18.11;53.91
34177;BME280;20450;49.074;9.158;2023-05-14T12:46:34;99542.41;;;18.05;54.69
34177;BME280;20450;49.074;9.158;2023-05-14T12:49:01;99527.94;;;18.76;54.35
34177;BME280;20450;49.074;9.158;2023-05-14T12:51:28;99531.56;;;19.12;52.30
34177;BME280;20450;49.074;9.158;2023-05-14T12:53:56;99535.38;;;18.86;52.31
34177;BME280;20450;49.074;9.158;2023-05-14T12:56:23;99528.50;;;18.88;53.97
34177;BME280;20450;49.074;9.158;2023-05-14T12:58:50;99516.25;;;19.46;53.53
34177;BME280;20450;49.074;9.158;2023-05-14T13:01:17;99515.88;;;19.98;52.58
34177;BME280;20450;49.074;9.158;2023-05-14T13:03:44;99509.53;;;20.12;51.49
34177;BME280;20450;49.074;9.158;2023-05-14T13:06:11;99513.88;;;20.28;51.75
34177;BME280;20450;49.074;9.158;2023-05-14T13:08:38;99514.22;;;20.02;50.90
34177;BME280;20450;49.074;9.158;2023-05-14T13:11:10;99511.03;;;19.60;52.83
34177;BME280;20450;49.074;9.158;2023-05-14T13:13:37;99512.66;;;18.95;53.75
34177;BME280;20450;49.074;9.158;2023-05-14T13:16:04;99515.94;;;19.22;54.27
34177;BME280;20450;49.074;9.158;2023-05-14T13:18:32;99517.03;;;18.86;56.88
34177;BME280;20450;49.074;9.158;2023-05-14T13:20:59;99505.56;;;19.39;53.82
34177;BME280;20450;49.074;9.158;2023-05-14T13:23:26;99505.53;;;19.70;52.76
34177;BME280;20450;49.074;9.158;2023-05-14T13:25:54;99508.81;;;19.16;53.18
34177;BME280;20450;49.074;9.158;2023-05-14T13:28:22;99508.00;;;19.01;53.76
34177;BME280;20450;49.074;9.158;2023-05-14T13:31:03;99495.16;;;19.11;55.22
34177;BME280;20450;49.074;9.158;2023-05-14T13:33:34;99499.81;;;19.51;54.01
34177;BME280;20450;49.074;9.158;2023-05-14T13:36:03;99492.66;;;19.65;52.41
34177;BME280;20450;49.074;9.158;2023-05-14T13:38:31;99490.22;;;19.54;52.46
34177;BME280;20450;49.074;9.158;2023-05-14T13:41:00;99482.56;;;19.45;53.76
34177;BME280;20450;49.074;9.158;2023-05-14T13:43:29;99489.13;;;19.60;54.03
34177;BME280;20450;49.074;9.158;2023-05-14T13:45:57;99489.94;;;19.60;53.39
34177;BME280;20450;49.074;9.158;2023-05-14T13:48:24;99469.31;;;19.78;53.62
34177;BME280;20450;49.074;9.158;2023-05-14T13:50:52;99465.75;;;19.82;52.00
34177;BME280;20450;49.074;9.158;2023-05-14T13:53:20;99468.84;;;19.61;51.46
34177;BME280;20450;49.074;9.158;2023-05-14T13:55:48;99464.66;;;19.73;51.71
34177;BME280;20450;49.074;9.158;2023-05-14T13:58:16;99461.94;;;19.78;51.53
34177;BME280;20450;49.074;9.158;2023-05-14T14:00:45;99461.94;;;19.73;51.03
34177;BME280;20450;49.074;9.158;2023-05-14T14:03:12;99453.56;;;19.29;49.90